sensor_id;sensor_type;location;lat;lon;timestamp;temperature;humidity
24152;DHT22;12311;50.866;4.332;2023-11-18T00:01:15;7.60;99.90
24152;DHT22;12311;50.866;4.332;2023-11-18T00:03:41;7.60;99.90
24152;DHT22;12311;50.866;4.332;2023-11-18T00:06:07;7.50;99.90
24152;DHT22;12311;50.866;4.332;2023-11-18T00:08:33;7.50;99.90
24152;DHT22;12311;50.866;4.332;2023-11-18T00:10:59;7.50;99.90
24152;DHT22;12311;50.866;4.332;2023-11-18T00:13:25;7.40;99.90
24152;DHT22;12311;50.866;4.332;2023-11-18T00:15:52;7.40;99.90
24152;DHT22;12311;50.866;4.332;2023-11-18T00:18:17;7.40;99.90
24152;DHT22;12311;50.866;4.332;2023-11-18T00:20:44;7.30;99.90
24152;DHT22;12311;50.866;4.332;2023-11-18T00:23:11;7.30;99.90
24152;DHT22;12311;50.866;4.332;2023-11-18T00:25:36;7.30;99.90
24152;DHT22;12311;50.866;4.332;2023-11-18T00:28:05;7.20;99.90
24152;DHT22;12311;50.866;4.332;2023-11-18T00:30:33;7.30;99.90
24152;DHT22;12311;50.866;4.332;2023-11-18T00:32:59;7.40;99.90
24152;DHT22;12311;50.866;4.332;2023-11-18T00:35:24;7.30;99.90
24152;DHT22;12311;50.866;4.332;2023-11-18T00:37:50;7.20;99.90
24152;DHT22;12311;50.866;4.332;2023-11-18T00:40:16;7.30;99.90
24152;DHT22;12311;50.866;4.332;2023-11-18T00:42:44;7.30;99.90
24152;DHT22;12311;50.866;4.332;2023-11-18T00:45:10;7.20;99.90
24152;DHT22;12311;50.866;4.332;2023-11-18T00:47:38;7.30;99.90
24152;DHT22;12311;50.866;4.332;2023-11-18T00:50:04;7.20;99.90
24152;DHT22;12311;50.866;4.332;2023-11-18T00:52:33;7.20;99.90
24152;DHT22;12311;50.866;4.332;2023-11-18T00:54:59;7.20;99.90
24152;DHT22;12311;50.866;4.332;2023-11-18T00:57:25;7.30;99.90
24152;DHT22;12311;50.866;4.332;2023-11-18T00:59:50;7.30;99.90
24152;DHT22;12311;50.866;4.332;2023-11-18T01:02:16;7.30;99.90
24152;DHT22;12311;50.866;4.332;2023-11-18T01:04:46;7.30;99.90
24152;DHT22;12311;50.866;4.332;2023-11-18T01:07:12;7.30;99.90
24152;DHT22;12311;50.866;4.332;2023-11-18T01:09:38;7.30;99.90
24152;DHT22;12311;50.866;4.332;2023-11-18T01:12:05;7.30;99.90
24152;DHT22;12311;50.866;4.332;2023-11-18T01:14:31;7.30;99.90
24152;DHT22;12311;50.866;4.332;2023-11-18T01:16:57;7.30;99.90
24152;DHT22;12311;50.866;4.332;2023-11-18T01:19:23;7.40;99.90
24152;DHT22;12311;50.866;4.332;2023-11-18T01:21:49;7.40;99.90
24152;DHT22;12311;50.866;4.332;2023-11-18T01:24:15;7.40;99.90
24152;DHT22;12311;50.866;4.332;2023-11-18T01:26:41;7.40;99.90
24152;DHT22;12311;50.866;4.332;2023-11-18T01:29:07;7.50;99.90
24152;DHT22;12311;50.866;4.332;2023-11-18T01:31:33;7.50;99.90
24152;DHT22;12311;50.866;4.332;2023-11-18T01:33:59;7.50;99.90
24152;DHT22;12311;50.866;4.332;2023-11-18T01:36:25;7.50;99.90
24152;DHT22;12311;50.866;4.332;2023-11-18T01:38:51;7.50;99.90
24152;DHT22;12311;50.866;4.332;2023-11-18T01:41:16;7.40;99.90
24152;DHT22;12311;50.866;4.332;2023-11-18T01:43:46;7.50;99.90
24152;DHT22;12311;50.866;4.332;2023-11-18T01:46:12;7.50;99.90
24152;DHT22;12311;50.866;4.332;2023-11-18T01:48:39;7.50;99.90
24152;DHT22;12311;50.866;4.332;2023-11-18T01:51:07;7.50;99.90
24152;DHT22;12311;50.866;4.332;2023-11-18T01:53:34;7.50;99.90
24152;DHT22;12311;50.866;4.332;2023-11-18T01:56:02;7.50;99.90
24152;DHT22;12311;50.866;4.332;2023-11-18T01:58:30;7.50;99.90
24152;DHT22;12311;50.866;4.332;2023-11-18T02:00:57;7.50;99.90
24152;DHT22;12311;50.866;4.332;2023-11-18T02:03:23;7.50;99.90
24152;DHT22;12311;50.866;4.332;2023-11-18T02:05:48;7.50;99.90
24152;DHT22;12311;50.866;4.332;2023-11-18T02:08:15;7.50;99.90
24152;DHT22;12311;50.866;4.332;2023-11-18T02:11:05;7.60;99.90
24152;DHT22;12311;50.866;4.332;2023-11-18T02:13:39;7.60;99.90
24152;DHT22;12311;50.866;4.332;2023-11-18T02:16:08;7.50;99.90
24152;DHT22;12311;50.866;4.332;2023-11-18T02:18:35;7.60;99.90
24152;DHT22;12311;50.866;4.332;2023-11-18T02:21:04;7.60;99.90
24152;DHT22;12311;50.866;4.332;2023-11-18T02:23:30;7.70;99.90
24152;DHT22;12311;50.866;4.332;2023-11-18T02:25:56;7.60;99.90
24152;DHT22;12311;50.866;4.332;2023-11-18T02:28:22;7.60;99.90
24152;DHT22;12311;50.866;4.332;2023-11-18T02:30:50;7.60;99.90
24152;DHT22;12311;50.866;4.332;2023-11-18T02:33:27;7.50;99.90
24152;DHT22;12311;50.866;4.332;2023-11-18T02:36:10;7.50;99.90
24152;DHT22;12311;50.866;4.332;2023-11-18T02:38:45;7.60;99.90
24152;DHT22;12311;50.866;4.332;2023-11-18T02:41:13;7.60;99.90
24152;DHT22;12311;50.866;4.332;2023-11-18T02:43:44;7.60;99.90
24152;DHT22;12311;50.866;4.332;2023-11-18T02:46:10;7.70;99.90
24152;DHT22;12311;50.866;4.332;2023-11-18T02:48:39;7.70;99.90
24152;DHT22;12311;50.866;4.332;2023-11-18T02:51:04;7.70;99.90
24152;DHT22;12311;50.866;4.332;2023-11-18T02:53:33;7.70;99.90
24152;DHT22;12311;50.866;4.332;2023-11-18T02:55:59;7.80;99.90
24152;DHT22;12311;50.866;4.332;2023-11-18T02:58:29;7.70;99.90
24152;DHT22;12311;50.866;4.332;2023-11-18T03:00:55;7.70;99.90
24152;DHT22;12311;50.866;4.332;2023-11-18T03:03:21;7.70;99.90
24152;DHT22;12311;50.866;4.332;2023-11-18T03:05:46;7.70;99.90
24152;DHT22;12311;50.866;4.332;2023-11-18T03:08:15;7.70;99.90
24152;DHT22;12311;50.866;4.332;2023-11-18T03:10:41;7.70;99.90
24152;DHT22;12311;50.866;4.332;2023-11-18T03:13:09;7.70;99.90
24152;DHT22;12311;50.866;4.332;2023-11-18T03:15:35;7.60;99.90
24152;DHT22;12311;50.866;4.332;2023-11-18T03:18:01;7.70;99.90
24152;DHT22;12311;50.866;4.332;2023-11-18T03:20:27;7.70;99.90
24152;DHT22;12311;50.866;4.332;2023-11-18T03:22:54;7.70;99.90
24152;DHT22;12311;50.866;4.332;2023-11-18T03:25:20;7.80;99.90
24152;DHT22;12311;50.866;4.332;2023-11-18T03:27:47;7.90;99.90
24152;DHT22;12311;50.866;4.332;2023-11-18T03:30:13;8.00;99.90
24152;DHT22;12311;50.866;4.332;2023-11-18T03:32:40;8.10;99.90
24152;DHT22;12311;50.866;4.332;2023-11-18T03:35:06;8.00;99.90
24152;DHT22;12311;50.866;4.332;2023-11-18T03:37:34;8.00;99.90
24152;DHT22;12311;50.866;4.332;2023-11-18T03:40:00;7.90;99.90
24152;DHT22;12311;50.866;4.332;2023-11-18T03:42:25;7.90;99.90
24152;DHT22;12311;50.866;4.332;2023-11-18T03:44:54;7.90;99.90
24152;DHT22;12311;50.866;4.332;2023-11-18T03:47:20;7.90;99.90
24152;DHT22;12311;50.866;4.332;2023-11-18T03:49:50;7.90;99.90
24152;DHT22;12311;50.866;4.332;2023-11-18T03:52:15;7.90;99.90
24152;DHT22;12311;50.866;4.332;2023-11-18T03:54:41;7.90;99.90
24152;DHT22;12311;50.866;4.332;2023-11-18T03:57:07;7.90;99.90
24152;DHT22;12311;50.866;4.332;2023-11-18T03:59:33;7.90;99.90
24152;DHT22;12311;50.866;4.332;2023-11-18T04:01:58;7.80;99.90
24152;DHT22;12311;50.866;4.332;2023-11-18T04:04:24;7.90;99.90
24152;DHT22;12311;50.866;4.332;2023-11-18T04:06:50;7.90;99.90
24152;DHT22;12311;50.866;4.332;2023-11-18T04:09:16;8.00;99.90
24152;DHT22;12311;50.866;4.332;2023-11-18T04:11:41;8.00;99.90
24152;DHT22;12311;50.866;4.332;2023-11-18T04:14:10;8.00;99.90
24152;DHT22;12311;50.866;4.332;2023-11-18T04:16:36;8.00;99.90
24152;DHT22;12311;50.866;4.332;2023-11-18T04:19:03;8.00;99.90
24152;DHT22;12311;50.866;4.332;2023-11-18T04:21:29;8.00;99.90
24152;DHT22;12311;50.866;4.332;2023-11-18T04:23:55;8.00;99.90
24152;DHT22;12311;50.866;4.332;2023-11-18T04:26:20;7.90;99.90
24152;DHT22;12311;50.866;4.332;2023-11-18T04:28:46;8.00;99.90
24152;DHT22;12311;50.866;4.332;2023-11-18T04:31:12;7.90;99.90
24152;DHT22;12311;50.866;4.332;2023-11-18T04:33:37;8.00;99.90
24152;DHT22;12311;50.866;4.332;2023-11-18T04:36:07;8.00;99.90
24152;DHT22;12311;50.866;4.332;2023-11-18T04:38:35;8.00;99.90
24152;DHT22;12311;50.866;4.332;2023-11-18T04:41:01;8.10;99.90
24152;DHT22;12311;50.866;4.332;2023-11-18T04:43:28;8.10;99.90
24152;DHT22;12311;50.866;4.332;2023-11-18T04:45:54;8.10;99.90
24152;DHT22;12311;50.866;4.332;2023-11-18T04:48:20;8.10;99.90
24152;DHT22;12311;50.866;4.332;2023-11-18T04:50:46;8.10;99.90
24152;DHT22;12311;50.866;4.332;2023-11-18T04:53:12;8.10;99.90
24152;DHT22;12311;50.866;4.332;2023-11-18T04:55:38;8.20;99.90
24152;DHT22;12311;50.866;4.332;2023-11-18T04:58:04;8.40;99.90
24152;DHT22;12311;50.866;4.332;2023-11-18T05:00:35;8.40;99.90
24152;DHT22;12311;50.866;4.332;2023-11-18T05:03:01;8.40;99.90
24152;DHT22;12311;50.866;4.332;2023-11-18T05:05:26;8.40;99.90
24152;DHT22;12311;50.866;4.332;2023-11-18T05:07:52;8.50;99.90
24152;DHT22;12311;50.866;4.332;2023-11-18T05:10:18;8.50;99.90
24152;DHT22;12311;50.866;4.332;2023-11-18T05:12:44;8.60;99.90
24152;DHT22;12311;50.866;4.332;2023-11-18T05:15:10;8.60;99.90
24152;DHT22;12311;50.866;4.332;2023-11-18T05:17:36;8.50;99.90
24152;DHT22;12311;50.866;4.332;2023-11-18T05:20:03;8.50;99.90
24152;DHT22;12311;50.866;4.332;2023-11-18T05:22:29;8.50;99.90
24152;DHT22;12311;50.866;4.332;2023-11-18T05:24:55;8.50;99.90
24152;DHT22;12311;50.866;4.332;2023-11-18T05:27:20;8.50;99.90
24152;DHT22;12311;50.866;4.332;2023-11-18T05:29:46;8.50;99.90
24152;DHT22;12311;50.866;4.332;2023-11-18T05:32:22;8.50;99.90
24152;DHT22;12311;50.866;4.332;2023-11-18T05:34:50;8.50;99.90
24152;DHT22;12311;50.866;4.332;2023-11-18T05:37:19;8.50;99.90
24152;DHT22;12311;50.866;4.332;2023-11-18T05:39:44;8.50;99.90
24152;DHT22;12311;50.866;4.332;2023-11-18T05:42:11;8.40;99.90
24152;DHT22;12311;50.866;4.332;2023-11-18T05:44:37;8.40;99.90
24152;DHT22;12311;50.866;4.332;2023-11-18T05:47:05;8.40;99.90
24152;DHT22;12311;50.866;4.332;2023-11-18T05:49:35;8.50;99.90
24152;DHT22;12311;50.866;4.332;2023-11-18T05:52:01;8.50;99.90
24152;DHT22;12311;50.866;4.332;2023-11-18T05:54:26;8.50;99.90
24152;DHT22;12311;50.866;4.332;2023-11-18T05:56:54;8.50;99.90
24152;DHT22;12311;50.866;4.332;2023-11-18T05:59:19;8.50;99.90
24152;DHT22;12311;50.866;4.332;2023-11-18T06:01:47;8.50;99.90
24152;DHT22;12311;50.866;4.332;2023-11-18T06:04:13;8.50;99.90
24152;DHT22;12311;50.866;4.332;2023-11-18T06:06:39;8.50;99.90
24152;DHT22;12311;50.866;4.332;2023-11-18T06:09:04;8.50;99.90
24152;DHT22;12311;50.866;4.332;2023-11-18T06:11:34;8.60;99.90
24152;DHT22;12311;50.866;4.332;2023-11-18T06:14:01;8.60;99.90
24152;DHT22;12311;50.866;4.332;2023-11-18T06:16:27;8.60;99.90
24152;DHT22;12311;50.866;4.332;2023-11-18T06:18:56;8.60;99.90
24152;DHT22;12311;50.866;4.332;2023-11-18T06:21:25;8.60;99.90
24152;DHT22;12311;50.866;4.332;2023-11-18T06:23:54;8.60;99.90
24152;DHT22;12311;50.866;4.332;2023-11-18T06:26:23;8.60;99.90
24152;DHT22;12311;50.866;4.332;2023-11-18T06:28:53;8.60;99.90
24152;DHT22;12311;50.866;4.332;2023-11-18T06:31:19;8.60;99.90
24152;DHT22;12311;50.866;4.332;2023-11-18T06:33:46;8.60;99.90
24152;DHT22;12311;50.866;4.332;2023-11-18T06:38:51;8.60;99.90
24152;DHT22;12311;50.866;4.332;2023-11-18T06:41:19;8.70;99.90
24152;DHT22;12311;50.866;4.332;2023-11-18T06:43:48;8.70;99.90
24152;DHT22;12311;50.866;4.332;2023-11-18T06:46:25;8.60;99.90
24152;DHT22;12311;50.866;4.332;2023-11-18T06:48:52;8.70;99.90
24152;DHT22;12311;50.866;4.332;2023-11-18T06:51:23;8.80;99.90
24152;DHT22;12311;50.866;4.332;2023-11-18T06:53:50;8.80;99.90
24152;DHT22;12311;50.866;4.332;2023-11-18T06:56:17;8.90;99.90
24152;DHT22;12311;50.866;4.332;2023-11-18T06:58:42;8.80;99.90
24152;DHT22;12311;50.866;4.332;2023-11-18T07:01:09;8.80;99.90
24152;DHT22;12311;50.866;4.332;2023-11-18T07:03:35;8.90;99.90
24152;DHT22;12311;50.866;4.332;2023-11-18T07:06:02;8.90;99.90
24152;DHT22;12311;50.866;4.332;2023-11-18T07:08:31;8.90;99.90
24152;DHT22;12311;50.866;4.332;2023-11-18T07:10:57;8.90;99.90
24152;DHT22;12311;50.866;4.332;2023-11-18T07:13:22;8.90;99.90
24152;DHT22;12311;50.866;4.332;2023-11-18T07:15:49;8.90;99.90
24152;DHT22;12311;50.866;4.332;2023-11-18T07:18:15;9.00;99.90
24152;DHT22;12311;50.866;4.332;2023-11-18T07:20:42;9.00;99.90
24152;DHT22;12311;50.866;4.332;2023-11-18T07:23:07;9.00;99.90
24152;DHT22;12311;50.866;4.332;2023-11-18T07:25:34;9.00;99.90
24152;DHT22;12311;50.866;4.332;2023-11-18T07:28:00;9.00;99.90
24152;DHT22;12311;50.866;4.332;2023-11-18T07:30:26;9.00;99.90
24152;DHT22;12311;50.866;4.332;2023-11-18T07:32:51;8.90;99.90
24152;DHT22;12311;50.866;4.332;2023-11-18T07:35:17;8.90;99.90
24152;DHT22;12311;50.866;4.332;2023-11-18T07:37:43;8.90;99.90
24152;DHT22;12311;50.866;4.332;2023-11-18T07:40:09;8.90;99.90
24152;DHT22;12311;50.866;4.332;2023-11-18T07:42:37;8.80;99.90
24152;DHT22;12311;50.866;4.332;2023-11-18T07:45:04;8.90;99.90
24152;DHT22;12311;50.866;4.332;2023-11-18T07:47:36;8.80;99.90
24152;DHT22;12311;50.866;4.332;2023-11-18T07:50:02;8.70;99.90
24152;DHT22;12311;50.866;4.332;2023-11-18T07:52:30;8.70;99.90
24152;DHT22;12311;50.866;4.332;2023-11-18T07:54:55;8.70;99.90
24152;DHT22;12311;50.866;4.332;2023-11-18T07:57:21;8.70;99.90
24152;DHT22;12311;50.866;4.332;2023-11-18T07:59:49;8.60;99.90
24152;DHT22;12311;50.866;4.332;2023-11-18T08:02:15;8.60;99.90
24152;DHT22;12311;50.866;4.332;2023-11-18T08:04:41;8.60;99.90
24152;DHT22;12311;50.866;4.332;2023-11-18T08:07:07;8.60;99.90
24152;DHT22;12311;50.866;4.332;2023-11-18T08:09:36;8.60;99.90
24152;DHT22;12311;50.866;4.332;2023-11-18T08:12:05;8.50;99.90
24152;DHT22;12311;50.866;4.332;2023-11-18T08:14:32;8.50;99.90
24152;DHT22;12311;50.866;4.332;2023-11-18T08:16:58;8.50;99.90
24152;DHT22;12311;50.866;4.332;2023-11-18T08:19:25;8.50;99.90
24152;DHT22;12311;50.866;4.332;2023-11-18T08:21:51;8.50;99.90
24152;DHT22;12311;50.866;4.332;2023-11-18T08:24:17;8.60;99.90
24152;DHT22;12311;50.866;4.332;2023-11-18T08:26:43;8.50;99.90
24152;DHT22;12311;50.866;4.332;2023-11-18T08:29:08;8.50;99.90
24152;DHT22;12311;50.866;4.332;2023-11-18T08:31:34;8.50;99.90
24152;DHT22;12311;50.866;4.332;2023-11-18T08:34:00;8.50;99.90
24152;DHT22;12311;50.866;4.332;2023-11-18T08:36:26;8.50;99.90
24152;DHT22;12311;50.866;4.332;2023-11-18T08:38:53;8.40;99.90
24152;DHT22;12311;50.866;4.332;2023-11-18T08:41:19;8.50;99.90
24152;DHT22;12311;50.866;4.332;2023-11-18T08:43:45;8.60;99.90
24152;DHT22;12311;50.866;4.332;2023-11-18T08:46:15;8.50;99.90
24152;DHT22;12311;50.866;4.332;2023-11-18T08:48:40;8.60;99.90
24152;DHT22;12311;50.866;4.332;2023-11-18T08:51:07;8.60;99.90
24152;DHT22;12311;50.866;4.332;2023-11-18T08:53:34;8.60;99.90
24152;DHT22;12311;50.866;4.332;2023-11-18T08:56:09;8.60;99.90
24152;DHT22;12311;50.866;4.332;2023-11-18T08:58:43;8.50;99.90
24152;DHT22;12311;50.866;4.332;2023-11-18T09:01:10;8.60;99.90
24152;DHT22;12311;50.866;4.332;2023-11-18T09:03:40;8.50;99.90
24152;DHT22;12311;50.866;4.332;2023-11-18T09:06:14;8.50;99.90
24152;DHT22;12311;50.866;4.332;2023-11-18T09:08:44;8.50;99.90
24152;DHT22;12311;50.866;4.332;2023-11-18T09:11:13;8.50;99.90
24152;DHT22;12311;50.866;4.332;2023-11-18T09:13:46;8.50;99.90
24152;DHT22;12311;50.866;4.332;2023-11-18T09:16:19;8.50;99.90
24152;DHT22;12311;50.866;4.332;2023-11-18T09:18:48;8.50;99.90
24152;DHT22;12311;50.866;4.332;2023-11-18T09:21:14;8.50;99.90
24152;DHT22;12311;50.866;4.332;2023-11-18T09:23:40;8.60;99.90
24152;DHT22;12311;50.866;4.332;2023-11-18T09:26:06;8.50;99.90
24152;DHT22;12311;50.866;4.332;2023-11-18T09:28:36;8.60;99.90
24152;DHT22;12311;50.866;4.332;2023-11-18T09:31:03;8.70;99.90
24152;DHT22;12311;50.866;4.332;2023-11-18T09:33:31;8.60;99.90
24152;DHT22;12311;50.866;4.332;2023-11-18T09:36:04;8.50;99.90
24152;DHT22;12311;50.866;4.332;2023-11-18T09:38:36;8.50;99.90
24152;DHT22;12311;50.866;4.332;2023-11-18T09:41:04;8.50;99.90
24152;DHT22;12311;50.866;4.332;2023-11-18T09:43:33;8.50;99.90
24152;DHT22;12311;50.866;4.332;2023-11-18T09:46:09;8.50;99.90
24152;DHT22;12311;50.866;4.332;2023-11-18T09:49:06;8.50;99.90
24152;DHT22;12311;50.866;4.332;2023-11-18T09:51:42;8.50;99.90
24152;DHT22;12311;50.866;4.332;2023-11-18T09:54:31;8.50;99.90
24152;DHT22;12311;50.866;4.332;2023-11-18T09:57:27;8.60;99.90
24152;DHT22;12311;50.866;4.332;2023-11-18T10:02:39;8.50;99.90
24152;DHT22;12311;50.866;4.332;2023-11-18T10:05:07;8.60;99.90
24152;DHT22;12311;50.866;4.332;2023-11-18T10:07:40;8.60;99.90
24152;DHT22;12311;50.866;4.332;2023-11-18T10:10:08;8.60;99.90
24152;DHT22;12311;50.866;4.332;2023-11-18T10:12:44;8.60;99.90
24152;DHT22;12311;50.866;4.332;2023-11-18T10:15:21;8.50;99.90
24152;DHT22;12311;50.866;4.332;2023-11-18T10:17:51;8.60;99.90
24152;DHT22;12311;50.866;4.332;2023-11-18T10:23:08;8.70;99.90
24152;DHT22;12311;50.866;4.332;2023-11-18T10:25:45;8.60;99.90
24152;DHT22;12311;50.866;4.332;2023-11-18T10:28:41;8.60;99.90
24152;DHT22;12311;50.866;4.332;2023-11-18T10:31:08;8.50;99.90
24152;DHT22;12311;50.866;4.332;2023-11-18T10:33:41;8.60;99.90
24152;DHT22;12311;50.866;4.332;2023-11-18T10:36:18;8.70;99.90
24152;DHT22;12311;50.866;4.332;2023-11-18T10:38:48;8.70;99.90
24152;DHT22;12311;50.866;4.332;2023-11-18T10:41:15;8.70;99.90
24152;DHT22;12311;50.866;4.332;2023-11-18T10:43:42;8.70;99.90
24152;DHT22;12311;50.866;4.332;2023-11-18T10:46:11;8.80;99.90
24152;DHT22;12311;50.866;4.332;2023-11-18T10:48:50;8.80;99.90
24152;DHT22;12311;50.866;4.332;2023-11-18T10:51:17;8.80;99.90
24152;DHT22;12311;50.866;4.332;2023-11-18T10:53:47;8.80;99.90
24152;DHT22;12311;50.866;4.332;2023-11-18T10:56:27;8.80;99.90
24152;DHT22;12311;50.866;4.332;2023-11-18T10:58:56;8.90;99.90
24152;DHT22;12311;50.866;4.332;2023-11-18T11:01:36;8.90;99.90
24152;DHT22;12311;50.866;4.332;2023-11-18T11:04:11;8.90;99.90
24152;DHT22;12311;50.866;4.332;2023-11-18T11:06:41;8.90;99.90
24152;DHT22;12311;50.866;4.332;2023-11-18T11:09:10;8.90;99.90
24152;DHT22;12311;50.866;4.332;2023-11-18T11:11:45;8.90;99.90
24152;DHT22;12311;50.866;4.332;2023-11-18T11:14:12;8.90;99.90
24152;DHT22;12311;50.866;4.332;2023-11-18T11:16:47;8.90;99.90
24152;DHT22;12311;50.866;4.332;2023-11-18T11:19:29;8.90;99.90
24152;DHT22;12311;50.866;4.332;2023-11-18T11:22:06;9.00;99.90
24152;DHT22;12311;50.866;4.332;2023-11-18T11:24:49;9.00;99.90
24152;DHT22;12311;50.866;4.332;2023-11-18T11:27:27;9.00;99.90
24152;DHT22;12311;50.866;4.332;2023-11-18T11:30:15;9.00;99.90
24152;DHT22;12311;50.866;4.332;2023-11-18T11:32:53;9.10;99.90
24152;DHT22;12311;50.866;4.332;2023-11-18T11:35:31;9.10;99.90
24152;DHT22;12311;50.866;4.332;2023-11-18T11:37:59;9.10;99.90
24152;DHT22;12311;50.866;4.332;2023-11-18T11:40:33;9.20;99.90
24152;DHT22;12311;50.866;4.332;2023-11-18T11:43:02;9.20;99.90
24152;DHT22;12311;50.866;4.332;2023-11-18T11:45:30;9.20;99.90
24152;DHT22;12311;50.866;4.332;2023-11-18T11:47:59;9.10;99.90
24152;DHT22;12311;50.866;4.332;2023-11-18T11:53:32;9.20;99.90
24152;DHT22;12311;50.866;4.332;2023-11-18T11:56:01;9.20;99.90
24152;DHT22;12311;50.866;4.332;2023-11-18T11:58:35;9.30;99.90
24152;DHT22;12311;50.866;4.332;2023-11-18T12:01:16;9.20;99.90
24152;DHT22;12311;50.866;4.332;2023-11-18T12:03:49;9.20;99.90
24152;DHT22;12311;50.866;4.332;2023-11-18T12:06:19;9.20;99.90
24152;DHT22;12311;50.866;4.332;2023-11-18T12:08:56;9.20;99.90
24152;DHT22;12311;50.866;4.332;2023-11-18T12:11:22;9.20;99.90
24152;DHT22;12311;50.866;4.332;2023-11-18T12:17:14;9.20;99.90
24152;DHT22;12311;50.866;4.332;2023-11-18T12:19:47;9.20;99.90
24152;DHT22;12311;50.866;4.332;2023-11-18T12:22:14;9.20;99.90
24152;DHT22;12311;50.866;4.332;2023-11-18T12:27:42;9.30;99.90
24152;DHT22;12311;50.866;4.332;2023-11-18T12:35:27;9.30;99.90
24152;DHT22;12311;50.866;4.332;2023-11-18T12:38:13;9.30;99.90
24152;DHT22;12311;50.866;4.332;2023-11-18T12:40:56;9.30;99.90
24152;DHT22;12311;50.866;4.332;2023-11-18T12:43:57;9.40;99.90
24152;DHT22;12311;50.866;4.332;2023-11-18T12:46:52;9.30;99.90
24152;DHT22;12311;50.866;4.332;2023-11-18T12:49:19;9.30;99.90
24152;DHT22;12311;50.866;4.332;2023-11-18T12:51:52;9.40;99.90
24152;DHT22;12311;50.866;4.332;2023-11-18T12:54:19;9.30;99.90
24152;DHT22;12311;50.866;4.332;2023-11-18T12:56:45;9.30;99.90
24152;DHT22;12311;50.866;4.332;2023-11-18T12:59:16;9.40;99.90
24152;DHT22;12311;50.866;4.332;2023-11-18T13:01:44;9.40;99.90
24152;DHT22;12311;50.866;4.332;2023-11-18T13:04:17;9.30;99.90
24152;DHT22;12311;50.866;4.332;2023-11-18T13:06:46;9.30;99.90
24152;DHT22;12311;50.866;4.332;2023-11-18T13:09:12;9.30;99.90
24152;DHT22;12311;50.866;4.332;2023-11-18T13:14:27;9.40;99.90
24152;DHT22;12311;50.866;4.332;2023-11-18T13:16:54;9.40;99.90
24152;DHT22;12311;50.866;4.332;2023-11-18T13:19:28;9.40;99.90
24152;DHT22;12311;50.866;4.332;2023-11-18T13:21:58;9.50;99.90
24152;DHT22;12311;50.866;4.332;2023-11-18T13:24:27;9.50;99.90
24152;DHT22;12311;50.866;4.332;2023-11-18T13:26:55;9.50;99.90
24152;DHT22;12311;50.866;4.332;2023-11-18T13:29:23;9.50;99.90
24152;DHT22;12311;50.866;4.332;2023-11-18T13:31:50;9.50;99.90
24152;DHT22;12311;50.866;4.332;2023-11-18T13:34:20;9.50;99.90
24152;DHT22;12311;50.866;4.332;2023-11-18T13:36:49;9.50;99.90
24152;DHT22;12311;50.866;4.332;2023-11-18T13:39:19;9.50;99.90
24152;DHT22;12311;50.866;4.332;2023-11-18T13:41:54;9.50;99.90
24152;DHT22;12311;50.866;4.332;2023-11-18T13:44:36;9.60;99.90
24152;DHT22;12311;50.866;4.332;2023-11-18T13:47:10;9.60;99.90
24152;DHT22;12311;50.866;4.332;2023-11-18T13:49:39;9.60;99.90
24152;DHT22;12311;50.866;4.332;2023-11-18T13:52:08;9.60;99.90
24152;DHT22;12311;50.866;4.332;2023-11-18T13:54:36;9.60;99.90
24152;DHT22;12311;50.866;4.332;2023-11-18T13:57:03;9.60;99.90
24152;DHT22;12311;50.866;4.332;2023-11-18T13:59:29;9.70;99.90
24152;DHT22;12311;50.866;4.332;2023-11-18T14:01:56;9.60;99.90
24152;DHT22;12311;50.866;4.332;2023-11-18T14:04:27;9.70;99.90
24152;DHT22;12311;50.866;4.332;2023-11-18T14:06:57;9.70;99.90
24152;DHT22;12311;50.866;4.332;2023-11-18T14:09:23;9.70;99.90
24152;DHT22;12311;50.866;4.332;2023-11-18T14:11:53;9.70;99.90
24152;DHT22;12311;50.866;4.332;2023-11-18T14:14:22;9.70;99.90
24152;DHT22;12311;50.866;4.332;2023-11-18T14:16:51;9.70;99.90
24152;DHT22;12311;50.866;4.332;2023-11-18T14:19:23;9.70;99.90
24152;DHT22;12311;50.866;4.332;2023-11-18T14:21:51;9.80;99.90
24152;DHT22;12311;50.866;4.332;2023-11-18T14:24:16;9.70;99.90
24152;DHT22;12311;50.866;4.332;2023-11-18T14:26:46;9.80;99.90
24152;DHT22;12311;50.866;4.332;2023-11-18T14:29:12;9.80;99.90
24152;DHT22;12311;50.866;4.332;2023-11-18T14:31:39;9.80;99.90
24152;DHT22;12311;50.866;4.332;2023-11-18T14:34:05;9.80;99.90
24152;DHT22;12311;50.866;4.332;2023-11-18T14:36:36;9.90;99.90
24152;DHT22;12311;50.866;4.332;2023-11-18T14:39:02;9.80;99.90
24152;DHT22;12311;50.866;4.332;2023-11-18T14:41:29;9.90;99.90
24152;DHT22;12311;50.866;4.332;2023-11-18T14:43:57;9.90;99.90
24152;DHT22;12311;50.866;4.332;2023-11-18T14:46:27;9.90;99.90
24152;DHT22;12311;50.866;4.332;2023-11-18T14:48:53;9.90;99.90
24152;DHT22;12311;50.866;4.332;2023-11-18T14:51:19;9.90;99.90
24152;DHT22;12311;50.866;4.332;2023-11-18T14:53:46;9.90;99.90
24152;DHT22;12311;50.866;4.332;2023-11-18T14:56:12;9.90;99.90
24152;DHT22;12311;50.866;4.332;2023-11-18T14:58:37;10.00;99.90
24152;DHT22;12311;50.866;4.332;2023-11-18T15:01:03;10.00;99.90
24152;DHT22;12311;50.866;4.332;2023-11-18T15:03:33;10.00;99.90
24152;DHT22;12311;50.866;4.332;2023-11-18T15:05:58;10.00;99.90
24152;DHT22;12311;50.866;4.332;2023-11-18T15:08:24;10.00;99.90
24152;DHT22;12311;50.866;4.332;2023-11-18T15:10:50;10.00;99.90
24152;DHT22;12311;50.866;4.332;2023-11-18T15:13:16;10.10;99.90
24152;DHT22;12311;50.866;4.332;2023-11-18T15:15:45;10.10;99.90
24152;DHT22;12311;50.866;4.332;2023-11-18T15:18:14;10.10;99.90
24152;DHT22;12311;50.866;4.332;2023-11-18T15:20:43;10.10;99.90
24152;DHT22;12311;50.866;4.332;2023-11-18T15:23:10;10.20;99.90
24152;DHT22;12311;50.866;4.332;2023-11-18T15:25:36;10.20;99.90
24152;DHT22;12311;50.866;4.332;2023-11-18T15:28:02;10.20;99.90
24152;DHT22;12311;50.866;4.332;2023-11-18T15:30:29;10.30;99.90
24152;DHT22;12311;50.866;4.332;2023-11-18T15:32:55;10.30;99.90
24152;DHT22;12311;50.866;4.332;2023-11-18T15:35:22;10.40;99.90
24152;DHT22;12311;50.866;4.332;2023-11-18T15:37:48;10.40;99.90
24152;DHT22;12311;50.866;4.332;2023-11-18T15:40:14;10.40;99.90
24152;DHT22;12311;50.866;4.332;2023-11-18T15:42:45;10.50;99.90
24152;DHT22;12311;50.866;4.332;2023-11-18T15:45:21;10.50;99.90
24152;DHT22;12311;50.866;4.332;2023-11-18T15:47:47;10.60;99.90
24152;DHT22;12311;50.866;4.332;2023-11-18T15:50:15;10.50;99.90
24152;DHT22;12311;50.866;4.332;2023-11-18T15:52:45;10.50;99.90
24152;DHT22;12311;50.866;4.332;2023-11-18T15:55:13;10.60;99.90
24152;DHT22;12311;50.866;4.332;2023-11-18T15:57:47;10.60;99.90
24152;DHT22;12311;50.866;4.332;2023-11-18T16:00:13;10.60;99.90
24152;DHT22;12311;50.866;4.332;2023-11-18T16:02:43;10.60;99.90
24152;DHT22;12311;50.866;4.332;2023-11-18T16:05:11;10.60;99.90
24152;DHT22;12311;50.866;4.332;2023-11-18T16:07:41;10.70;99.90
24152;DHT22;12311;50.866;4.332;2023-11-18T16:10:07;10.70;99.90
24152;DHT22;12311;50.866;4.332;2023-11-18T16:12:33;10.70;99.90
24152;DHT22;12311;50.866;4.332;2023-11-18T16:14:58;10.70;99.90
24152;DHT22;12311;50.866;4.332;2023-11-18T16:17:24;10.70;99.90
24152;DHT22;12311;50.866;4.332;2023-11-18T16:19:50;10.80;99.90